Time;durP1;ratioP1;P1;durP2;ratioP2;P2;SDS_P1;SDS_P2;PMS_P1;PMS_P2;Temp;Humidity;BMP_temperature;BMP_pressure;BME280_temperature;BME280_humidity;BME280_pressure;Samples;Min_cycle;Max_cycle;Signal;HPM_P1;HPM_P2
2021/10/16 00:01:18;;;;;;;5.03;2.97;;;;;;;;;;5057405;28;20045;-81
2021/10/16 00:03:46;;;;;;;5.40;2.67;;;;;;;;;;5057915;28;20056;-81
2021/10/16 00:06:14;;;;;;;5.53;3.00;;;;;;;;;;5050785;28;20044;-81
2021/10/16 00:08:41;;;;;;;4.70;2.70;;;;;;;;;;5056839;28;20042;-80
2021/10/16 00:11:07;;;;;;;4.90;2.80;;;;;;;;;;5057317;28;20352;-81
2021/10/16 00:13:34;;;;;;;3.70;2.25;;;;;;;;;;5057754;28;20698;-81
2021/10/16 00:16:02;;;;;;;5.18;3.15;;;;;;;;;;5055786;28;20044;-80
2021/10/16 00:18:28;;;;;;;4.18;2.50;;;;;;;;;;5056325;28;20045;-81
2021/10/16 00:20:56;;;;;;;4.72;2.75;;;;;;;;;;5056010;28;20044;-81
2021/10/16 00:23:22;;;;;;;4.72;2.75;;;;;;;;;;5060344;28;20037;-80
2021/10/16 00:25:49;;;;;;;5.82;3.03;;;;;;;;;;5053667;28;20049;-80
2021/10/16 00:28:15;;;;;;;5.88;3.20;;;;;;;;;;5048557;28;20102;-80
2021/10/16 00:30:42;;;;;;;6.25;3.20;;;;;;;;;;5055535;28;20049;-80
2021/10/16 00:33:10;;;;;;;9.00;3.03;;;;;;;;;;5056490;28;20049;-80
2021/10/16 00:35:36;;;;;;;6.75;3.05;;;;;;;;;;5054358;28;20060;-80
2021/10/16 00:38:02;;;;;;;5.13;2.88;;;;;;;;;;5056748;28;20041;-80
2021/10/16 00:40:29;;;;;;;5.32;3.13;;;;;;;;;;5056829;28;20119;-80
2021/10/16 00:42:56;;;;;;;5.20;3.00;;;;;;;;;;5057079;28;20053;-80
2021/10/16 00:45:24;;;;;;;5.00;3.08;;;;;;;;;;5054347;28;20045;-80
2021/10/16 00:47:51;;;;;;;4.45;2.78;;;;;;;;;;5056704;28;20584;-81
2021/10/16 00:50:21;;;;;;;5.30;3.00;;;;;;;;;;5057352;28;20049;-80
2021/10/16 00:52:49;;;;;;;5.60;2.80;;;;;;;;;;5056861;28;20053;-80
2021/10/16 00:55:17;;;;;;;9.10;2.97;;;;;;;;;;5056728;28;20066;-80
2021/10/16 00:57:44;;;;;;;4.10;2.78;;;;;;;;;;5057522;28;20041;-81
2021/10/16 01:00:12;;;;;;;4.40;2.83;;;;;;;;;;5056920;28;20044;-81
2021/10/16 01:02:39;;;;;;;4.70;2.72;;;;;;;;;;5056019;28;20045;-81
2021/10/16 01:05:07;;;;;;;6.65;2.60;;;;;;;;;;5055097;28;20052;-81
2021/10/16 01:07:37;;;;;;;5.15;3.13;;;;;;;;;;5055654;28;20508;-81
2021/10/16 01:10:05;;;;;;;4.32;2.50;;;;;;;;;;5056424;28;20044;-80
2021/10/16 01:12:31;;;;;;;4.30;2.58;;;;;;;;;;5056072;28;20168;-81
2021/10/16 01:15:02;;;;;;;4.20;2.75;;;;;;;;;;5054487;28;20041;-81
2021/10/16 01:17:29;;;;;;;4.32;3.20;;;;;;;;;;5057140;28;20041;-81
2021/10/16 01:20:05;;;;;;;5.97;3.08;;;;;;;;;;5060466;28;20063;-81
2021/10/16 01:22:34;;;;;;;5.25;3.00;;;;;;;;;;5059748;28;20041;-82
2021/10/16 01:25:01;;;;;;;4.53;3.10;;;;;;;;;;5056846;28;20052;-81
2021/10/16 01:27:27;;;;;;;7.40;3.47;;;;;;;;;;5057888;28;20044;-81
2021/10/16 01:29:55;;;;;;;5.93;2.85;;;;;;;;;;5056775;28;20056;-81
2021/10/16 01:32:21;;;;;;;4.70;2.90;;;;;;;;;;5056831;28;20037;-81
2021/10/16 01:34:47;;;;;;;5.57;2.53;;;;;;;;;;5052769;28;20052;-82
2021/10/16 01:37:14;;;;;;;4.60;2.55;;;;;;;;;;5043822;28;20045;-81
2021/10/16 01:39:42;;;;;;;4.05;2.40;;;;;;;;;;5057111;28;20045;-81
2021/10/16 01:42:12;;;;;;;4.28;2.78;;;;;;;;;;5049455;28;20049;-82
2021/10/16 01:44:40;;;;;;;4.60;2.70;;;;;;;;;;5054357;28;20053;-81
2021/10/16 01:47:09;;;;;;;5.85;2.83;;;;;;;;;;5056199;28;20041;-81
2021/10/16 01:49:37;;;;;;;4.65;2.70;;;;;;;;;;5056968;28;20053;-81
2021/10/16 01:52:04;;;;;;;5.18;2.53;;;;;;;;;;5056834;28;20052;-81
2021/10/16 01:54:34;;;;;;;5.18;2.42;;;;;;;;;;5056076;28;20061;-81
2021/10/16 01:57:01;;;;;;;5.07;2.55;;;;;;;;;;5060193;28;20076;-81
2021/10/16 01:59:28;;;;;;;4.70;2.90;;;;;;;;;;5059958;28;20140;-81
2021/10/16 02:01:55;;;;;;;5.65;2.90;;;;;;;;;;5060757;28;20041;-81
2021/10/16 02:04:22;;;;;;;6.68;3.45;;;;;;;;;;5058669;28;20041;-81
2021/10/16 02:06:48;;;;;;;4.88;3.22;;;;;;;;;;5058726;28;20053;-81
2021/10/16 02:09:16;;;;;;;7.20;3.00;;;;;;;;;;5060710;28;20075;-81
2021/10/16 02:11:43;;;;;;;5.05;2.80;;;;;;;;;;5060472;28;20075;-81
2021/10/16 02:14:15;;;;;;;4.38;2.67;;;;;;;;;;5059640;28;20049;-81
2021/10/16 02:16:45;;;;;;;4.90;2.50;;;;;;;;;;5051029;28;20044;-81
2021/10/16 02:19:12;;;;;;;4.63;2.88;;;;;;;;;;5059584;28;20518;-81
2021/10/16 02:21:41;;;;;;;4.70;2.95;;;;;;;;;;5041958;28;20466;-81
2021/10/16 02:24:07;;;;;;;5.25;3.45;;;;;;;;;;5059412;28;20060;-81
2021/10/16 02:26:34;;;;;;;4.35;2.45;;;;;;;;;;5056765;28;20049;-81
2021/10/16 02:29:00;;;;;;;6.28;3.33;;;;;;;;;;5059545;28;20575;-81
2021/10/16 02:31:28;;;;;;;6.35;3.10;;;;;;;;;;5059335;28;20045;-81
2021/10/16 02:33:54;;;;;;;5.15;2.92;;;;;;;;;;5059135;28;20057;-80
2021/10/16 02:36:21;;;;;;;4.40;2.88;;;;;;;;;;5059080;28;20379;-80
2021/10/16 02:38:50;;;;;;;5.47;3.15;;;;;;;;;;5059611;28;20049;-81
2021/10/16 02:41:17;;;;;;;6.78;2.97;;;;;;;;;;5060116;28;20056;-81
2021/10/16 02:43:43;;;;;;;5.32;3.17;;;;;;;;;;5059626;28;20040;-81
2021/10/16 02:46:10;;;;;;;6.32;3.15;;;;;;;;;;5042244;28;20053;-81
2021/10/16 02:48:37;;;;;;;5.47;3.20;;;;;;;;;;5055222;28;20045;-80
2021/10/16 02:51:04;;;;;;;5.60;3.30;;;;;;;;;;5059033;28;20048;-81
2021/10/16 02:53:31;;;;;;;6.35;3.38;;;;;;;;;;5059552;28;20051;-81
2021/10/16 02:55:57;;;;;;;6.00;3.05;;;;;;;;;;5057841;28;20056;-81
2021/10/16 02:58:23;;;;;;;5.88;3.10;;;;;;;;;;5060137;28;20048;-81
2021/10/16 03:00:50;;;;;;;4.80;2.67;;;;;;;;;;5059746;28;20049;-81
2021/10/16 03:03:16;;;;;;;4.35;2.95;;;;;;;;;;5059617;28;20041;-80
2021/10/16 03:05:44;;;;;;;4.93;3.00;;;;;;;;;;5057257;28;20457;-82
2021/10/16 03:08:10;;;;;;;8.27;3.33;;;;;;;;;;5058079;28;20052;-81
2021/10/16 03:10:37;;;;;;;6.70;2.90;;;;;;;;;;5059060;28;20041;-81
2021/10/16 03:13:03;;;;;;;6.57;3.10;;;;;;;;;;5059358;28;20528;-81
2021/10/16 03:15:30;;;;;;;6.75;3.20;;;;;;;;;;5053259;28;20045;-81
2021/10/16 03:17:56;;;;;;;4.90;2.97;;;;;;;;;;5059676;28;20044;-81
2021/10/16 03:20:22;;;;;;;8.48;4.60;;;;;;;;;;5059670;28;20045;-81
2021/10/16 03:22:50;;;;;;;5.38;2.92;;;;;;;;;;5058581;28;20119;-81
2021/10/16 03:25:17;;;;;;;6.35;2.88;;;;;;;;;;5058662;28;20062;-81
2021/10/16 03:27:43;;;;;;;6.05;3.30;;;;;;;;;;5062323;28;20477;-81
2021/10/16 03:30:10;;;;;;;5.43;3.03;;;;;;;;;;5056001;28;20052;-80
2021/10/16 03:32:36;;;;;;;7.20;3.00;;;;;;;;;;5058795;28;20095;-80
2021/10/16 03:35:03;;;;;;;6.80;2.97;;;;;;;;;;5057433;28;20523;-82
2021/10/16 03:37:35;;;;;;;5.75;3.40;;;;;;;;;;5058136;28;20052;-81
2021/10/16 03:40:04;;;;;;;5.68;2.80;;;;;;;;;;5058527;28;20041;-80
2021/10/16 03:42:31;;;;;;;5.10;2.97;;;;;;;;;;5057614;28;20052;-80
2021/10/16 03:44:57;;;;;;;5.70;3.10;;;;;;;;;;5057570;28;20049;-80
2021/10/16 03:47:27;;;;;;;4.30;2.50;;;;;;;;;;5058148;28;20049;-80
2021/10/16 03:49:53;;;;;;;4.85;2.53;;;;;;;;;;5058290;28;20441;-81
2021/10/16 03:52:20;;;;;;;5.30;2.85;;;;;;;;;;5058204;28;20041;-80
2021/10/16 03:54:46;;;;;;;5.13;2.85;;;;;;;;;;5052605;28;20060;-80
2021/10/16 03:57:14;;;;;;;4.28;2.40;;;;;;;;;;5046699;28;20056;-80
2021/10/16 03:59:42;;;;;;;4.35;2.65;;;;;;;;;;5058187;28;20063;-80
2021/10/16 04:02:16;;;;;;;5.93;3.50;;;;;;;;;;5058651;28;20056;-80
2021/10/16 04:04:43;;;;;;;6.07;3.03;;;;;;;;;;5057160;28;20124;-80
2021/10/16 04:07:09;;;;;;;4.43;2.80;;;;;;;;;;5056764;28;20053;-80
2021/10/16 04:09:35;;;;;;;4.75;2.97;;;;;;;;;;5045307;28;20405;-80
2021/10/16 04:12:02;;;;;;;4.60;2.53;;;;;;;;;;5057781;28;20041;-80
2021/10/16 04:14:30;;;;;;;6.00;3.58;;;;;;;;;;5055669;28;20056;-80
2021/10/16 04:16:56;;;;;;;5.13;2.90;;;;;;;;;;5056575;28;20548;-80
2021/10/16 04:19:23;;;;;;;5.88;3.10;;;;;;;;;;5055584;28;20041;-80
2021/10/16 04:21:49;;;;;;;5.47;2.65;;;;;;;;;;5056219;28;20052;-81
2021/10/16 04:24:15;;;;;;;5.88;2.80;;;;;;;;;;5055717;28;20142;-82
2021/10/16 04:26:42;;;;;;;5.43;2.47;;;;;;;;;;5056399;28;20079;-81
2021/10/16 04:29:08;;;;;;;6.10;2.90;;;;;;;;;;5055807;28;20052;-81
2021/10/16 04:31:39;;;;;;;7.15;2.72;;;;;;;;;;5056858;28;20045;-81
2021/10/16 04:34:06;;;;;;;5.43;2.83;;;;;;;;;;5056385;28;20045;-81
2021/10/16 04:36:33;;;;;;;5.75;2.88;;;;;;;;;;5057478;28;20059;-80
2021/10/16 04:38:59;;;;;;;5.65;3.10;;;;;;;;;;5056274;28;20052;-81
2021/10/16 04:41:26;;;;;;;8.10;4.05;;;;;;;;;;5057642;28;20041;-81
2021/10/16 04:43:54;;;;;;;9.50;4.50;;;;;;;;;;5057319;28;20409;-81
2021/10/16 04:46:23;;;;;;;6.63;3.10;;;;;;;;;;5056247;28;20052;-81
2021/10/16 04:48:53;;;;;;;5.97;3.20;;;;;;;;;;5056679;28;20441;-80
2021/10/16 04:51:20;;;;;;;5.95;3.22;;;;;;;;;;5056645;28;20048;-80
2021/10/16 04:53:47;;;;;;;6.85;3.65;;;;;;;;;;5057587;28;20060;-81
2021/10/16 04:56:13;;;;;;;8.88;3.70;;;;;;;;;;5053724;28;20421;-81
2021/10/16 04:58:39;;;;;;;5.63;3.53;;;;;;;;;;5057374;28;20045;-81
2021/10/16 05:01:06;;;;;;;7.90;3.80;;;;;;;;;;5057051;28;20041;-81
2021/10/16 05:03:35;;;;;;;5.47;2.92;;;;;;;;;;5056810;28;20722;-80
2021/10/16 05:06:12;;;;;;;;;;;;;;;;;;;;;
2021/10/16 05:08:40;;;;;;;7.35;3.78;;;;;;;;;;5056868;28;20112;-81
2021/10/16 05:11:07;;;;;;;5.90;3.03;;;;;;;;;;5057437;28;20071;-80
2021/10/16 05:13:33;;;;;;;5.25;3.22;;;;;;;;;;5057268;28;20052;-80
2021/10/16 05:16:00;;;;;;;5.53;3.10;;;;;;;;;;5055786;28;20045;-81
2021/10/16 05:18:26;;;;;;;5.90;3.15;;;;;;;;;;5056929;28;20045;-81
2021/10/16 05:20:53;;;;;;;6.53;3.58;;;;;;;;;;5056881;28;20045;-81
2021/10/16 05:23:29;;;;;;;6.75;3.88;;;;;;;;;;5057282;28;20041;-81
2021/10/16 05:25:55;;;;;;;6.95;3.67;;;;;;;;;;5057862;28;20052;-81
2021/10/16 05:28:21;;;;;;;7.57;4.15;;;;;;;;;;5056896;28;20095;-81
2021/10/16 05:30:49;;;;;;;7.75;4.70;;;;;;;;;;5059999;28;20582;-81
2021/10/16 05:33:16;;;;;;;18.15;5.07;;;;;;;;;;5060457;28;20709;-81
2021/10/16 05:35:44;;;;;;;9.20;4.72;;;;;;;;;;5060582;28;20045;-81
2021/10/16 05:38:11;;;;;;;7.82;4.72;;;;;;;;;;5060571;28;20065;-81
2021/10/16 05:40:39;;;;;;;11.88;6.97;;;;;;;;;;5060375;28;20037;-81
2021/10/16 05:43:06;;;;;;;12.18;9.85;;;;;;;;;;5061012;28;20120;-81
2021/10/16 05:45:32;;;;;;;11.75;6.07;;;;;;;;;;5059630;28;20508;-81
2021/10/16 05:47:59;;;;;;;22.40;8.48;;;;;;;;;;5060883;28;20060;-81
2021/10/16 05:50:26;;;;;;;22.42;8.15;;;;;;;;;;5060785;28;20056;-81
2021/10/16 05:52:53;;;;;;;8.18;5.22;;;;;;;;;;5060544;28;20109;-81
2021/10/16 05:55:19;;;;;;;25.05;9.13;;;;;;;;;;5049713;28;20061;-81
2021/10/16 05:57:47;;;;;;;11.90;6.78;;;;;;;;;;5053623;28;20037;-81
2021/10/16 06:00:14;;;;;;;18.88;5.35;;;;;;;;;;5059988;28;20052;-80
2021/10/16 06:02:44;;;;;;;8.45;4.85;;;;;;;;;;5060315;28;20063;-81
2021/10/16 06:05:10;;;;;;;6.85;5.28;;;;;;;;;;5057112;28;20045;-80
2021/10/16 06:07:37;;;;;;;8.40;4.03;;;;;;;;;;5059921;28;20045;-80
2021/10/16 06:10:13;;;;;;;6.38;4.05;;;;;;;;;;5060386;28;20057;-82
2021/10/16 06:12:41;;;;;;;;;;;;;;;;;;5059636;28;20061;-81
2021/10/16 06:15:10;;;;;;;12.80;4.82;;;;;;;;;;5057894;28;19921;-81
2021/10/16 06:17:40;;;;;;;5.47;4.50;;;;;;;;;;5059879;28;20037;-80
2021/10/16 06:20:08;;;;;;;8.50;5.25;;;;;;;;;;5059812;28;20405;-80
2021/10/16 06:22:34;;;;;;;18.17;11.82;;;;;;;;;;5059516;28;20478;-80
2021/10/16 06:25:00;;;;;;;13.25;8.30;;;;;;;;;;5056920;28;20494;-80
2021/10/16 06:27:27;;;;;;;14.80;9.07;;;;;;;;;;5059440;28;20053;-80
2021/10/16 06:29:54;;;;;;;19.30;7.45;;;;;;;;;;5063223;28;20101;-80
2021/10/16 06:32:21;;;;;;;12.10;6.90;;;;;;;;;;5062388;28;20044;-80
2021/10/16 06:34:48;;;;;;;12.65;6.68;;;;;;;;;;5056981;28;20132;-81
2021/10/16 06:37:14;;;;;;;12.52;5.78;;;;;;;;;;5057713;28;20124;-80
2021/10/16 06:39:41;;;;;;;12.15;4.90;;;;;;;;;;5057006;28;20049;-78
2021/10/16 06:42:07;;;;;;;17.48;7.90;;;;;;;;;;5057106;28;20050;-82
2021/10/16 06:44:34;;;;;;;17.63;9.27;;;;;;;;;;5056896;28;20053;-80
2021/10/16 06:47:01;;;;;;;9.32;5.50;;;;;;;;;;5057080;28;20045;-79
2021/10/16 06:49:30;;;;;;;7.18;4.93;;;;;;;;;;5058627;28;20406;-80
2021/10/16 06:51:56;;;;;;;6.78;4.18;;;;;;;;;;5057155;28;20500;-80
2021/10/16 06:54:23;;;;;;;8.43;4.80;;;;;;;;;;5056513;28;20049;-80
2021/10/16 06:56:52;;;;;;;8.10;4.50;;;;;;;;;;5059363;28;20044;-81
2021/10/16 06:59:18;;;;;;;12.10;4.70;;;;;;;;;;5060131;28;20052;-80
2021/10/16 07:01:44;;;;;;;7.15;3.78;;;;;;;;;;5058768;28;20048;-80
2021/10/16 07:04:11;;;;;;;8.15;3.95;;;;;;;;;;5050667;28;20056;-80
2021/10/16 07:06:39;;;;;;;11.18;5.15;;;;;;;;;;5046435;28;20048;-80
2021/10/16 07:09:06;;;;;;;13.30;5.55;;;;;;;;;;5057891;28;20044;-79
2021/10/16 07:11:33;;;;;;;19.80;6.43;;;;;;;;;;5059005;28;20049;-81
2021/10/16 07:13:59;;;;;;;13.25;5.43;;;;;;;;;;5058001;28;20494;-80
2021/10/16 07:16:25;;;;;;;9.90;6.57;;;;;;;;;;5040543;28;20037;-80
2021/10/16 07:18:52;;;;;;;11.00;6.35;;;;;;;;;;5052562;28;20052;-80
2021/10/16 07:21:19;;;;;;;10.13;6.53;;;;;;;;;;5057888;28;20457;-81
2021/10/16 07:23:47;;;;;;;10.93;6.28;;;;;;;;;;5061154;28;20059;-81
2021/10/16 07:26:15;;;;;;;12.20;7.28;;;;;;;;;;5053533;28;20124;-81
2021/10/16 07:28:42;;;;;;;12.32;7.93;;;;;;;;;;5054781;28;20045;-80
2021/10/16 07:31:09;;;;;;;11.57;8.27;;;;;;;;;;5057509;28;20431;-81
2021/10/16 07:33:35;;;;;;;16.23;9.82;;;;;;;;;;5061271;28;20054;-80
2021/10/16 07:36:01;;;;;;;15.65;10.05;;;;;;;;;;5055624;28;20057;-81
2021/10/16 07:38:28;;;;;;;19.20;11.52;;;;;;;;;;5057074;28;20049;-81
2021/10/16 07:40:56;;;;;;;19.35;10.85;;;;;;;;;;5055218;28;20504;-82
2021/10/16 07:43:24;;;;;;;21.20;11.88;;;;;;;;;;5048856;28;20555;-81
2021/10/16 07:45:50;;;;;;;20.70;12.82;;;;;;;;;;5054295;28;20045;-81
2021/10/16 07:48:17;;;;;;;21.23;13.00;;;;;;;;;;5051069;28;20049;-82
2021/10/16 07:50:44;;;;;;;22.90;12.27;;;;;;;;;;5043846;28;20051;-81
2021/10/16 07:53:10;;;;;;;20.73;12.13;;;;;;;;;;5049840;28;20776;-81
2021/10/16 07:55:37;;;;;;;20.95;12.95;;;;;;;;;;5055181;28;20049;-81
2021/10/16 07:58:05;;;;;;;24.17;14.13;;;;;;;;;;5053967;28;20053;-83
2021/10/16 08:00:33;;;;;;;25.20;13.80;;;;;;;;;;5052963;28;20045;-81
2021/10/16 08:02:59;;;;;;;23.15;14.18;;;;;;;;;;5044898;28;20110;-81
2021/10/16 08:05:26;;;;;;;25.95;14.43;;;;;;;;;;5052076;28;20041;-81
2021/10/16 08:07:52;;;;;;;25.58;13.13;;;;;;;;;;5044133;28;20081;-81
2021/10/16 08:10:22;;;;;;;29.10;14.70;;;;;;;;;;5045180;28;20512;-83
2021/10/16 08:12:49;;;;;;;24.75;13.73;;;;;;;;;;5047869;28;20103;-81
2021/10/16 08:15:17;;;;;;;24.10;13.57;;;;;;;;;;5053419;28;20591;-81
2021/10/16 08:17:44;;;;;;;24.15;13.98;;;;;;;;;;5051549;28;20045;-83
2021/10/16 08:20:12;;;;;;;22.75;13.32;;;;;;;;;;5049397;28;20049;-79
2021/10/16 08:22:42;;;;;;;26.20;15.73;;;;;;;;;;5046063;28;20073;-80
2021/10/16 08:25:13;;;;;;;26.80;15.20;;;;;;;;;;5048456;28;20052;-79
2021/10/16 08:27:40;;;;;;;24.48;14.38;;;;;;;;;;5048355;28;20045;-79
2021/10/16 08:30:09;;;;;;;28.00;16.30;;;;;;;;;;5046274;28;20048;-80
2021/10/16 08:32:38;;;;;;;29.77;15.80;;;;;;;;;;5049930;28;20041;-78
2021/10/16 08:35:05;;;;;;;33.42;18.38;;;;;;;;;;5051594;28;20041;-80
2021/10/16 08:37:31;;;;;;;30.67;17.48;;;;;;;;;;5047008;28;20075;-80
2021/10/16 08:40:00;;;;;;;32.92;18.08;;;;;;;;;;5041897;28;20045;-80
2021/10/16 08:42:27;;;;;;;31.35;18.27;;;;;;;;;;5050855;28;20049;-80
2021/10/16 08:44:58;;;;;;;31.52;18.52;;;;;;;;;;5045908;28;20045;-81
2021/10/16 08:47:26;;;;;;;34.17;17.52;;;;;;;;;;5057160;28;20045;-82
2021/10/16 08:49:54;;;;;;;30.25;18.40;;;;;;;;;;5057088;28;20052;-81
2021/10/16 08:52:20;;;;;;;33.65;18.35;;;;;;;;;;5055725;28;20045;-81
2021/10/16 08:54:54;;;;;;;31.13;18.33;;;;;;;;;;5055934;28;20052;-81
2021/10/16 08:57:21;;;;;;;33.78;18.05;;;;;;;;;;5057304;28;20071;-81
2021/10/16 08:59:47;;;;;;;30.98;18.50;;;;;;;;;;5057467;28;20073;-81
2021/10/16 09:02:14;;;;;;;26.90;16.75;;;;;;;;;;5057063;28;20049;-81
2021/10/16 09:04:41;;;;;;;28.50;16.55;;;;;;;;;;5056462;28;20041;-81
2021/10/16 09:07:22;;;;;;;29.25;17.73;;;;;;;;;;5061108;28;20048;-81
2021/10/16 09:09:49;;;;;;;28.85;18.13;;;;;;;;;;5061426;28;20056;-80
2021/10/16 09:12:16;;;;;;;29.15;17.35;;;;;;;;;;5061013;28;20052;-80
2021/10/16 09:14:47;;;;;;;30.85;17.48;;;;;;;;;;5056142;28;20041;-80
2021/10/16 09:17:14;;;;;;;32.45;19.83;;;;;;;;;;5040709;28;20053;-81
2021/10/16 09:19:41;;;;;;;29.90;18.20;;;;;;;;;;5040920;28;20049;-81
2021/10/16 09:22:08;;;;;;;33.13;19.13;;;;;;;;;;5041114;28;20046;-81
2021/10/16 09:24:38;;;;;;;32.88;18.67;;;;;;;;;;5045355;28;20048;-81
2021/10/16 09:27:07;;;;;;;31.92;19.33;;;;;;;;;;5061137;28;20107;-82
2021/10/16 09:29:35;;;;;;;29.65;18.15;;;;;;;;;;5060708;28;20045;-81
2021/10/16 09:32:03;;;;;;;30.90;18.55;;;;;;;;;;5063071;28;20575;-81
2021/10/16 09:34:32;;;;;;;33.25;19.20;;;;;;;;;;5056944;28;20049;-81
2021/10/16 09:37:03;;;;;;;29.75;17.80;;;;;;;;;;5050371;28;20403;-81
2021/10/16 09:39:30;;;;;;;29.85;17.95;;;;;;;;;;5040053;28;20453;-81
2021/10/16 09:41:58;;;;;;;29.98;18.10;;;;;;;;;;5040392;28;20077;-81
2021/10/16 09:44:27;;;;;;;31.42;18.15;;;;;;;;;;5042309;28;20048;-81
2021/10/16 09:47:11;;;;;;;32.70;19.67;;;;;;;;;;5041190;28;20041;-81
2021/10/16 09:49:40;;;;;;;31.50;18.23;;;;;;;;;;5040472;28;20072;-82
2021/10/16 09:52:08;;;;;;;29.15;17.40;;;;;;;;;;5040766;28;20045;-81
2021/10/16 09:54:35;;;;;;;30.27;18.83;;;;;;;;;;5043448;28;20052;-81
2021/10/16 09:57:06;;;;;;;30.55;18.15;;;;;;;;;;5058549;28;20057;-81
2021/10/16 09:59:34;;;;;;;29.40;18.92;;;;;;;;;;5059574;28;20048;-81
2021/10/16 10:02:01;;;;;;;31.45;18.95;;;;;;;;;;5058958;28;20044;-81
2021/10/16 10:04:31;;;;;;;32.33;19.65;;;;;;;;;;5056120;28;20054;-81
2021/10/16 10:06:58;;;;;;;33.92;20.60;;;;;;;;;;5040157;28;20049;-81
2021/10/16 10:09:25;;;;;;;31.25;19.25;;;;;;;;;;5051595;28;20444;-81
2021/10/16 10:11:53;;;;;;;29.73;19.08;;;;;;;;;;5059853;28;20066;-81
2021/10/16 10:14:21;;;;;;;34.63;23.42;;;;;;;;;;5054454;28;20071;-82
2021/10/16 10:16:48;;;;;;;35.63;28.02;;;;;;;;;;5053612;28;20068;-82
2021/10/16 10:19:26;;;;;;;32.22;20.10;;;;;;;;;;5059379;28;20041;-83
2021/10/16 10:21:56;;;;;;;28.25;17.83;;;;;;;;;;5059788;28;20053;-82
2021/10/16 10:24:36;;;;;;;28.40;19.20;;;;;;;;;;5058119;28;20061;-80
2021/10/16 10:27:06;;;;;;;33.78;19.20;;;;;;;;;;5059700;28;20057;-81
2021/10/16 10:29:37;;;;;;;29.98;17.83;;;;;;;;;;5059667;28;20057;-81
2021/10/16 10:32:06;;;;;;;29.40;18.33;;;;;;;;;;5057715;28;20041;-82
2021/10/16 10:34:38;;;;;;;33.35;18.63;;;;;;;;;;5057885;28;20045;-81
2021/10/16 10:37:10;;;;;;;31.75;18.90;;;;;;;;;;5062377;28;20103;-81
2021/10/16 10:39:51;;;;;;;30.13;17.92;;;;;;;;;;5051499;28;20079;-81
2021/10/16 10:42:49;;;;;;;28.90;17.60;;;;;;;;;;5052122;28;20041;-80
2021/10/16 10:45:41;;;;;;;27.27;17.83;;;;;;;;;;5056641;28;20469;-80
2021/10/16 10:48:16;;;;;;;29.60;18.38;;;;;;;;;;5054541;28;20052;-82
2021/10/16 10:51:02;;;;;;;27.17;18.10;;;;;;;;;;5058926;28;20044;-80
2021/10/16 10:53:37;;;;;;;25.52;17.17;;;;;;;;;;5039554;28;20077;-81
2021/10/16 10:56:07;;;;;;;29.77;17.73;;;;;;;;;;5046382;28;20402;-80
2021/10/16 10:58:57;;;;;;;27.10;16.70;;;;;;;;;;5055803;28;20048;-80
2021/10/16 11:01:45;;;;;;;25.60;16.05;;;;;;;;;;5056912;28;20504;-80
2021/10/16 11:04:30;;;;;;;32.47;19.35;;;;;;;;;;5056013;28;20045;-81
2021/10/16 11:06:58;;;;;;;27.15;17.08;;;;;;;;;;5048964;28;20049;-82
2021/10/16 11:09:24;;;;;;;25.25;16.15;;;;;;;;;;5057782;28;20056;-81
2021/10/16 11:11:51;;;;;;;24.80;15.02;;;;;;;;;;5057467;28;20052;-81
2021/10/16 11:14:20;;;;;;;25.58;16.92;;;;;;;;;;5057363;28;20442;-81
2021/10/16 11:16:59;;;;;;;27.65;16.27;;;;;;;;;;5058867;28;20098;-81
2021/10/16 11:19:26;;;;;;;28.60;17.83;;;;;;;;;;5037056;28;20037;-81
2021/10/16 11:21:57;;;;;;;26.13;16.65;;;;;;;;;;5056368;28;20049;-81
2021/10/16 11:24:27;;;;;;;22.65;15.75;;;;;;;;;;5041938;28;20084;-83
2021/10/16 11:26:59;;;;;;;24.58;15.63;;;;;;;;;;5039016;28;20107;-83
2021/10/16 11:29:36;;;;;;;28.42;17.65;;;;;;;;;;5057717;28;20053;-80
2021/10/16 11:32:18;;;;;;;28.55;16.27;;;;;;;;;;5058563;28;20049;-81
2021/10/16 11:34:59;;;;;;;29.67;18.90;;;;;;;;;;5054918;28;20052;-80
2021/10/16 11:37:50;;;;;;;25.48;16.98;;;;;;;;;;5050715;28;20055;-80
2021/10/16 11:40:18;;;;;;;22.90;16.75;;;;;;;;;;5036723;28;20058;-81
2021/10/16 11:42:46;;;;;;;26.98;17.73;;;;;;;;;;5058284;28;20052;-80
2021/10/16 11:45:15;;;;;;;24.73;16.73;;;;;;;;;;5054022;28;20040;-81
2021/10/16 11:47:49;;;;;;;25.52;17.08;;;;;;;;;;5037835;28;20053;-81
2021/10/16 11:50:18;;;;;;;21.15;16.00;;;;;;;;;;5051671;28;20071;-80
2021/10/16 11:52:46;;;;;;;23.50;15.20;;;;;;;;;;5057464;28;20575;-81
2021/10/16 11:55:15;;;;;;;21.70;14.63;;;;;;;;;;5055043;28;20052;-81
2021/10/16 11:57:43;;;;;;;24.20;16.27;;;;;;;;;;5044582;28;20049;-79
2021/10/16 12:00:20;;;;;;;23.23;15.32;;;;;;;;;;5037324;28;20430;-82
2021/10/16 12:02:48;;;;;;;21.35;14.38;;;;;;;;;;5036861;28;20050;-80
2021/10/16 12:05:16;;;;;;;19.27;13.98;;;;;;;;;;5038689;28;20046;-81
2021/10/16 12:07:43;;;;;;;17.35;13.13;;;;;;;;;;5045667;28;20045;-81
2021/10/16 12:10:37;;;;;;;18.35;12.82;;;;;;;;;;5056945;28;20520;-81
2021/10/16 12:13:10;;;;;;;19.85;13.55;;;;;;;;;;5042492;28;20053;-86
2021/10/16 12:15:46;;;;;;;16.73;12.27;;;;;;;;;;5062022;28;20048;-82
2021/10/16 12:18:21;;;;;;;14.20;10.30;;;;;;;;;;5058182;28;20072;-83
2021/10/16 12:20:54;;;;;;;15.07;10.40;;;;;;;;;;5056519;28;20048;-83
2021/10/16 12:23:21;;;;;;;19.70;13.98;;;;;;;;;;5059105;28;20043;-82
2021/10/16 12:25:53;;;;;;;57.95;41.65;;;;;;;;;;5059001;28;20448;-82
2021/10/16 12:28:20;;;;;;;16.10;13.07;;;;;;;;;;5058659;28;20517;-80
2021/10/16 12:31:14;;;;;;;16.58;11.30;;;;;;;;;;5058101;28;20051;-83
2021/10/16 12:33:59;;;;;;;16.98;12.00;;;;;;;;;;5058828;28;20084;-82
2021/10/16 12:36:32;;;;;;;17.10;12.98;;;;;;;;;;5061528;28;20497;-82
2021/10/16 12:38:59;;;;;;;16.48;11.82;;;;;;;;;;5052455;28;20537;-82
2021/10/16 12:41:32;;;;;;;14.90;11.77;;;;;;;;;;5054584;28;20087;-81
2021/10/16 12:44:16;;;;;;;15.02;11.60;;;;;;;;;;5056017;28;20158;-83
2021/10/16 12:46:43;;;;;;;13.45;9.80;;;;;;;;;;5057125;28;20049;-81
2021/10/16 12:49:44;;;;;;;11.32;7.63;;;;;;;;;;5057564;28;20052;-83
2021/10/16 12:52:30;;;;;;;12.32;8.50;;;;;;;;;;5048470;28;20037;-82
2021/10/16 12:54:58;;;;;;;13.10;8.25;;;;;;;;;;5052960;28;20555;-82
2021/10/16 12:57:24;;;;;;;13.35;8.40;;;;;;;;;;5055505;28;20049;-82
2021/10/16 12:59:53;;;;;;;10.80;8.05;;;;;;;;;;5054497;28;20095;-83
2021/10/16 13:02:20;;;;;;;9.38;7.05;;;;;;;;;;5053988;28;20052;-83
2021/10/16 13:04:55;;;;;;;9.40;6.97;;;;;;;;;;5051285;28;20060;-83
2021/10/16 13:07:24;;;;;;;8.80;5.90;;;;;;;;;;5050068;28;20107;-84
2021/10/16 13:09:53;;;;;;;10.77;6.55;;;;;;;;;;5057667;28;20052;-83
2021/10/16 13:12:20;;;;;;;9.85;6.85;;;;;;;;;;5058287;28;20048;-82
2021/10/16 13:14:46;;;;;;;9.60;6.63;;;;;;;;;;5054713;28;20053;-82
2021/10/16 13:17:19;;;;;;;8.55;6.82;;;;;;;;;;5058844;28;20045;-84
2021/10/16 13:19:45;;;;;;;8.80;6.22;;;;;;;;;;5056230;28;20489;-83
2021/10/16 13:22:13;;;;;;;8.10;5.60;;;;;;;;;;5054723;28;20049;-83
2021/10/16 13:24:39;;;;;;;10.45;6.47;;;;;;;;;;5055770;28;20335;-83
2021/10/16 13:27:06;;;;;;;8.48;6.00;;;;;;;;;;5056334;28;20041;-83
2021/10/16 13:29:32;;;;;;;7.22;4.93;;;;;;;;;;5059152;28;20090;-83
2021/10/16 13:31:59;;;;;;;6.93;4.70;;;;;;;;;;5057504;28;20048;-85
2021/10/16 13:34:26;;;;;;;6.60;4.28;;;;;;;;;;5053178;28;20060;-84
2021/10/16 13:36:53;;;;;;;6.15;4.22;;;;;;;;;;5059229;28;20044;-84
2021/10/16 13:39:21;;;;;;;6.18;4.50;;;;;;;;;;5052524;28;20038;-82
2021/10/16 13:41:47;;;;;;;7.75;4.10;;;;;;;;;;5050340;28;20049;-84
2021/10/16 13:44:16;;;;;;;6.32;4.43;;;;;;;;;;5056039;28;20103;-84
2021/10/16 13:46:43;;;;;;;5.47;3.65;;;;;;;;;;5056118;28;20045;-84
2021/10/16 13:49:12;;;;;;;6.68;4.10;;;;;;;;;;5054487;28;20067;-85
2021/10/16 13:51:38;;;;;;;6.93;4.65;;;;;;;;;;5050868;28;20049;-84
2021/10/16 13:54:07;;;;;;;8.32;4.57;;;;;;;;;;5068715;28;20045;-83
2021/10/16 13:56:35;;;;;;;6.30;4.30;;;;;;;;;;5059437;28;20260;-84
2021/10/16 13:59:09;;;;;;;6.93;4.47;;;;;;;;;;5059533;28;20397;-84
2021/10/16 14:01:36;;;;;;;7.28;4.65;;;;;;;;;;5057105;28;20048;-83
2021/10/16 14:04:03;;;;;;;5.30;4.05;;;;;;;;;;5060281;28;20061;-83
2021/10/16 14:06:29;;;;;;;6.07;3.75;;;;;;;;;;5060310;28;20102;-83
2021/10/16 14:08:56;;;;;;;5.68;4.15;;;;;;;;;;5059565;28;20444;-84
2021/10/16 14:11:22;;;;;;;7.88;4.78;;;;;;;;;;5058233;28;20040;-84
2021/10/16 14:13:50;;;;;;;7.50;5.30;;;;;;;;;;5058352;28;20095;-84
2021/10/16 14:16:17;;;;;;;7.53;5.32;;;;;;;;;;5058490;28;20048;-83
2021/10/16 14:18:44;;;;;;;6.95;4.35;;;;;;;;;;5057885;28;20053;-84
2021/10/16 14:21:11;;;;;;;6.40;4.88;;;;;;;;;;5058248;28;20048;-84
2021/10/16 14:23:41;;;;;;;5.50;3.92;;;;;;;;;;5058530;28;20045;-84
2021/10/16 14:26:08;;;;;;;5.78;3.72;;;;;;;;;;5057829;28;20064;-83
2021/10/16 14:28:38;;;;;;;4.90;3.83;;;;;;;;;;5059492;28;20049;-84
2021/10/16 14:31:10;;;;;;;5.85;3.88;;;;;;;;;;5058405;28;20444;-84
2021/10/16 14:33:37;;;;;;;6.88;3.95;;;;;;;;;;5058685;28;20045;-82
2021/10/16 14:36:04;;;;;;;7.53;5.05;;;;;;;;;;5059020;28;20053;-83
2021/10/16 14:38:31;;;;;;;11.43;6.20;;;;;;;;;;5055413;28;20045;-82
2021/10/16 14:40:57;;;;;;;6.90;5.20;;;;;;;;;;5057596;28;20048;-84
2021/10/16 14:43:24;;;;;;;5.88;4.57;;;;;;;;;;5051916;28;20041;-84